Virginia City, NV

10:40 PM PDT on October 24, 2014 (GMT -0700)
Downtown VC | Change Station
CLOSE
Current Station
Personal Weather Station
Location: Virginia City, NV
Elevation: 6150 ft
Nearby Weather Stations

Elev 6150 ft 39.31 °N, 119.65 °W | Updated 6 seconds ago

Clear
Clear
57.4 °F
Feels Like 57.4 °F
N
0.0
Wind Variable Wind from SSW
Gusts 2.7 mph

Today
High -- | Low -- °F
--% Chance of Precip.
Yesterday
High -- | Low -- °F
Precip. -- in
7:17 AM 6:07 PM
New Moon, 2% visible
Pressure 30.02 in
Visibility 10.0 miles
Clouds Clear
Dew Point 13 °F
Humidity 17%
Rainfall 0.00 in
Snow Depth 1 in , 0 in
UV 0 out of 12
Pollen 2.80 out of 12
Air Quality Not available.
Flu Activity No Activity
METAR KCXP 250515Z AUTO 19006KT 180V240 10SM CLR 18/M08 A3002 RMK AO2

More Conditions Fewer Conditions

Pressure 30.02 in
Visibility 10.0 miles
Clouds Clear
Dew Point 13 °F
Humidity 17%
Rainfall 0.00 in
Snow Depth 1 in , 0 in
UV 0 out of 12
Pollen 2.80 out of 12
Air Quality Not available.
Flu Activity No Activity
METAR KCXP 250515Z AUTO 19006KT 180V240 10SM CLR 18/M08 A3002 RMK AO2

More Conditions Fewer Conditions

10-Day Weather Forecast

Almanac

Astronomy

Oct. 24, 2014 Rise Set
Actual Time 7:17 AM PDT 6:07 PM PDT
Civil Twilight 6:50 AM PDT 6:34 PM PDT
Nautical Twilight 6:19 AM PDT 7:05 PM PDT
Astronomical Twilight 5:48 AM PDT 7:36 PM PDT
Moon 8:01 AM PDT (10/24) 6:50 PM PDT (10/24)
Length of Visible Light 11h 43m
Length of Day
10h 49m
Tomorrow will be 2m 22s shorter.
New Moon, 2% of the Moon is Illuminated
Oct 25
New Moon
Oct 30
First Quarter
Nov 6
Full
Nov 14
Last Quarter
Nov 22
New

Yesterday's Extremes

State Highs State Lows

Community

WunderPhotos

Upload Photos

1,764,785 photos uploaded!

Nearby

Snow Depth

Station Depth Elevation
Mt. Rose Ski Area 1 in 8850 ft
Marlette Lake 0 in 8000 ft
Big Creek Summit 1 in 8700 ft
Lewis Peak 0 in 7400 ft
Sheldon 0 in 5860 ft

Earthquake Activity

City Distance Mag. Time & Date
Gerlach-Empire, Nevada 68 miles 2.5 7:16 AM PDT
2014-10-23
Minimum magnitude displayed is 2.5.

Coastal Water Temperatures

Place Temperature
No Stations Reporting

Nearby Weather Stations